Forli, Italy

2:16 PM CEST on September 02, 2014 (GMT +0200)
Forlì SanLeonardo | Change Station
CLOSE
Current Station
Personal Weather Station
Location: Forli, EMILIA-ROMAGNA
Elevation: 49 ft
Nearby Weather Stations
Active Advisory: Thunderstorms

Elev 49 ft 44.22 °N, 12.15 °E | Updated 7 minutes ago

Overcast
Overcast
63.9 °F
Feels Like 63.9 °F
N
10.3
Wind Variable Wind from ENE
Gusts 13.4 mph

Today
High -- | Low -- °F
--% Chance of Precip.
Yesterday
High -- | Low -- °F
Precip. -- in
6:35 AM 7:46 PM
Waxing Crescent, 51% visible
Pressure 29.89 in
Visibility 6.2 miles
Clouds Scattered Clouds 2500 ft
Scattered Clouds 3000 ft
Dew Point 54 °F
Humidity 69%
Rainfall 0.00 in
Snow Depth Not available.
UV 7 out of 12
Pollen Not available.
Air Quality Not available.
Flu Activity Not available.
METAR LIPC 021155Z 06017KT 9999 -RA SCT025 SCT030 19/18 Q1012 RMK OVC VIS MIN 9999 WIND THR11 05015KT BLU

More Conditions Fewer Conditions

Pressure 29.89 in
Visibility 6.2 miles
Clouds Scattered Clouds 2500 ft
Scattered Clouds 3000 ft
Dew Point 54 °F
Humidity 69%
Rainfall 0.00 in
Snow Depth Not available.
UV 7 out of 12
Pollen Not available.
Air Quality Not available.
Flu Activity Not available.
METAR LIPC 021155Z 06017KT 9999 -RA SCT025 SCT030 19/18 Q1012 RMK OVC VIS MIN 9999 WIND THR11 05015KT BLU

More Conditions Fewer Conditions

10-Day Weather Forecast

Almanac

Astronomy

Sep. 02, 2014 Rise Set
Actual Time 6:35 AM CEST 7:46 PM CEST
Civil Twilight 6:05 AM CEST 8:16 PM CEST
Nautical Twilight 5:29 AM CEST 8:51 PM CEST
Astronomical Twilight 4:52 AM CEST 9:29 PM CEST
Moon 2:18 PM CEST No Moon Set
Length of Visible Light 14h 10m
Length of Day
13h 10m
Tomorrow will be 2m 55s shorter.
Waxing Crescent, 51% of the Moon is Illuminated
Today
Waxing Crescent
Sep 8
Full
Sep 15
Last Quarter
Sep 24
New
Oct 1
First Quarter

Yesterday's Extremes

Country Highs Country Lows

Community

WunderPhotos

Upload Photos

1,749,638 photos uploaded!

WunderBlogs® & News

By Dr. Jeff Masters
Director of Meteorology, Weather Underground
By Kari Strenfel
Meteorologist, Weather Underground
By Christopher C. Burt
Weather Historian, Weather Underground
September 2, 2014
September 2, 2014
September 2, 2014

Nearby

Snow Depth

Not available.

Earthquake Activity

City Distance Mag. Time & Date
No recent earthquake activity has been reported nearby.
Minimum magnitude displayed is 2.5.

Coastal Water Temperatures

Place Temperature
No Stations Reporting

Nearby Weather Stations